Sykesville, Maryland
Current Conditions -  °F | °C
As of 6:00 AM on Sunday 23 Nov 2014 (Local Time) from KDMW Reporting Station
Clear Clear  
Wind Chill: 36°   Ceiling: Unl
Heat Index: 39°   Visibility: 10mi
Dew Point: 19°   Wind: 5mph
Humidity: 45%   Direction: 180°S
Pressure: 30.18"   Gusts: NA
Location:  39.37°N, 76.97°W
Report Text: KDMW 231100Z AUTO 18004KT 10SM CLR 04/M07 A3018 RMK AO2
Loading
Personal Weather Stations






























Interactive Weather Map New forecast layout! Learn more

10-Day Weather Forecast

Advertisements
Track Severe Weather on mobile